Mc Clurg, Missouri
Current Conditions -  °F | °C
As of 2:50 PM on Thursday 23 Oct 2014 (Local Time) from KBBG Reporting Station
Overcast Overcast  
Wind Chill: 66°   Ceiling: 5000
Heat Index: 66°   Visibility: 10mi
Dew Point: 54°   Wind: 3mph
Humidity: 64%   Direction: 250°WSW
Pressure: 30.15"   Gusts: NA
Location:  36.7574°N, 92.8262°W
Report Text: KBBG 231950Z 25003KT 10SM OVC050 19/12 A3015
Loading
Personal Weather Stations






























Interactive Weather Map
Tropical Storm Tracking
New forecast layout! Learn more

10-Day Weather Forecast

Advertisements
Track Severe Weather on mobile